KAKR/AKR METAR and TAF weather

Enter ICAO airport designator
Station Type Date Time Source
KAKR METAR 2019/08/22 15:13 UTC NOAA

KAKR 221513Z AUTO 23005KT 10SM -RA BKN010 OVC016 23/20 A3001 RMK AO2 CIG 008V012 P0000 T02280200


Station Type Date Time Source
KAKR Decoded METAR 2019/08/22 15:13 UTC NOAA

Station name not available
Aug 22, 2019 - 11:13 AM EDT / 2019.08.22 1513 UTC
Wind: from the SW (230 degrees) at 6 MPH (5 KT):0
Visibility: 10 mile(s):0
Sky conditions: overcast
Weather: light rain
Precipitation last hour: A trace
Temperature: 73.0 F (22.8 C)
Dew Point: 68.0 F (20.0 C)
Relative Humidity: 84%
Pressure (altimeter): 30.01 in. Hg (1016 hPa)
ob: KAKR 221513Z AUTO 23005KT 10SM -RA BKN010 OVC016 23/20 A3001 RMK AO2 CIG 008V012 P0000 T02280200
cycle: 15

Station Type Date Time Source
KAKR TAF UTC NOAA

Error!

Example: see airport list